< < Back
Terminal Aerodrome Forecast


Current Version              Previous Versions:   1  2  3  4  5  6  7  8  9  

Terminal Aerodrome Forecast

757
FTUS44 KBMX 230500
TAFTCL
TAF
KTCL 230531Z 2306/2406 02005KT P6SM SKC
     FM231400 05009KT P6SM SKC
     FM240000 VRB03KT P6SM SKC=

Latest METAR

169
SAUS70 KWBC 240400
MTRTCL
METAR KTCL 240353Z AUTO 07004KT 10SM CLR 21/13 A3017 RMK AO2 SLP212
T02110133


USA.gov is the U.S. government's official web portal to all federal, state and local government web resources and services.